Hlavní strana
METAR-TAF:

METAR-TAF

Letiště :

Athens, Tennessee, Spojené státy americké

zeměpisná šířka: 35-23-50N, zeměpisná délka: 084-33-45W, výška: 262 m

Aktuální stav počasí

Zpráva byla vytvořena před 28 minutami, v 21:15 UTC
Bezvětří
Teplota 19°C
Vlhkost vzduchu 28%
Tlak 1022 hPa
Viditelnost: 16.1 km
Jasno

METAR: KMMI 252115Z AUTO 00000KT 10SM CLR 19/M00 A3017 RMK A01

Čas: 15:43 (21:43 UTC)


TAF: chybějící

Stav a předpovědi počasí z více než 4 000 letišť (zprávy METAR a TAF).

Červené a žluté tečky na mapě představují dostupné meteorologické stanice.

Když kurzor umístíte na tečku, zobrazí se název stanice.

Pak kliknutím zobrazíte stav a předpověď počasí.

Chcete-li změnit mapu, kliknutím na zelené tlačítko se znaménkem +mapu přiblížíte, kliknutím na zelené tlačítko se znaménkem – mapu oddálíte a kliknutím na zelené šipky přejdete na sousední mapy.


METAR-TAF: